• Join FlightAware (Why Join?)
  • Login
  • US Flag 
09:26AM EST


 

Airport Tracker/Info


-or-


 

Live Flight TrackerFlight Track Log ✈ N7724Q ✈ 13-Apr-2014 ✈ KARW - KIPJ

Flight Track Log - Related Links

Times and Time Zones

All times are in EDT time to prevent confusion due to time zone crossing. See the N7724Q flight status page for this flight to view local times or setup timezone preferences in your user account.

Time Position Orientation Groundspeed Altitude Reporting Facility
EDT Latitude Longitude Course Direction KTS MPH feet Rate Location/Type
09:33PM 32.7568 -80.6859 355° North  Level FlightAware Approximate
09:34PM 32.8081 -80.6916 355° North  Level FlightAware Approximate
09:35PM 32.8594 -80.6973 355° North  Level FlightAware Approximate
09:36PM 32.9105 -80.7057 350° North  Level FlightAware Approximate
09:37PM 32.9613 -80.7164 350° North  Level FlightAware Approximate
09:38PM 33.0121 -80.7270 350° North  Level FlightAware Approximate
09:39PM 33.0628 -80.7377 350° North  Level FlightAware Approximate
09:40PM 33.1136 -80.7484 350° North  Level FlightAware Approximate
09:41PM 33.1644 -80.7591 350° North  Level FlightAware Approximate
09:42PM 33.2153 -80.7688 353° North  Level FlightAware Approximate
09:43PM 33.2665 -80.7761 353° North  Level FlightAware Approximate
09:44PM 33.3177 -80.7834 353° North  Level FlightAware Approximate
09:45PM 33.3689 -80.7907 353° North  Level FlightAware Approximate
09:46PM 33.4201 -80.7980 353° North  Level FlightAware Approximate
09:47PM 33.4713 -80.8053 353° North  Level FlightAware Approximate
09:48PM 33.5225 -80.8126 353° North  Level FlightAware Approximate
09:49PM 33.5737 -80.8199 353° North  Level FlightAware Approximate
09:50PM 33.6249 -80.8273 353° North  Level FlightAware Approximate
09:51PM 33.6761 -80.8346 353° North  Level FlightAware Approximate
09:52PM 33.7273 -80.8419 353° North  Level FlightAware Approximate
09:53PM 33.7785 -80.8493 353° North  Level FlightAware Approximate
09:54PM 33.8296 -80.8580 352° North  Level FlightAware Approximate
09:55PM 33.8806 -80.8668 352° North  Level FlightAware Approximate
09:56PM 33.9317 -80.8756 352° North  Level FlightAware Approximate
09:57PM 33.9827 -80.8844 352° North  Level FlightAware Approximate
09:58PM 34.0338 -80.8933 352° North  Level FlightAware Approximate
09:59PM 34.0848 -80.9021 352° North  Level FlightAware Approximate
10:00PM 34.1358 -80.9110 352° North  Level FlightAware Approximate
10:01PM 34.1869 -80.9199 352° North  Level FlightAware Approximate
10:02PM 34.2379 -80.9288 352° North  Level FlightAware Approximate
10:03PM 34.2890 -80.9377 352° North  Level FlightAware Approximate
10:04PM 34.3400 -80.9466 352° North  Level FlightAware Approximate
10:05PM 34.3910 -80.9555 352° North  Level FlightAware Approximate
10:06PM 34.4399 -80.9640 352° North  Level FlightAware Approximate
10:06PM 34.4572 -80.9703 351° North 189 217 6,200  Level Atlanta Center
10:06PM 34.4844 -80.9719 357° North 184 212 6,200  Level Atlanta Center
10:07PM 34.4888 -80.9726 352° North  Level FlightAware Approximate
10:07PM 34.5283 -80.9831 348° North 179 206 6,200  Level Atlanta Center
10:08PM 34.5378 -80.9812 352° North  Level FlightAware Approximate
10:08PM 34.5808 -80.9911 353° North 187 215 5,800  Level Atlanta Center
10:09PM 34.5866 -80.9902 351° North  Level FlightAware Approximate
10:09PM 34.6339 -81.0319 328° Northwest 184 212 5,700  Level Atlanta Center
10:10PM 34.6354 -80.9994 351° North  Level FlightAware Approximate
10:10PM 34.6558 -81.0742 302° West 185 213 5,300  Level Atlanta Center
10:11PM 34.6843 -81.0086 351° North  Level FlightAware Approximate
10:11PM 34.6633 -81.1269 280° West 188 216 4,600  Level Atlanta Center
10:12PM 34.6981 -81.1839 307° West 200 230 4,100 -236 Descending Atlanta Center
10:13PM 34.7508 -81.2072 340° North 188 216 4,100 -45 Level Atlanta Center
10:14PM 34.8075 -81.2156 353° North 185 213 4,000 -45 Descending Atlanta Center
10:15PM 34.8661 -81.2236 354° North 187 215 4,000  Level Atlanta Center
10:16PM 34.9183 -81.2347 350° North 186 214 4,000 103 Level Atlanta Center
10:17PM 34.9667 -81.2431 352° North 185 213 4,200 104 Climbing Atlanta Center
10:18PM 35.0186 -81.2414 North 190 219 4,200 -58 Level Atlanta Center
10:19PM 35.0542 -81.2378 North 190 219 4,100 -52 Descending Atlanta Center
10:20PM 35.1189 -81.2381 360° North 193 222 4,100  Level Atlanta Center
10:21PM 35.1711 -81.2389 359° North 192 221 4,100  Level Atlanta Center
10:22PM 35.2231 -81.2394 359° North 190 219 4,100  Level Atlanta Center